Cranbury, New Jersey
Current Conditions -  °F | °C
As of 2:53 PM on Saturday 25 Oct 2014 (Local Time) from KTTN Reporting Station
Few Clouds Few Clouds  
Wind Chill: 67°   Ceiling: Unl
Heat Index: 67°   Visibility: 10mi
Dew Point: 42°   Wind: 14mph
Humidity: 40%   Direction: 270°W
Pressure: 29.74"   Gusts: 20mph
Location:  40.32°N, 74.51°W
Report Text: KTTN 251853Z 27012G17KT 10SM FEW050 19/06 A2974 RMK AO2 SLP064 T01940056
Loading
Personal Weather Stations






























Interactive Weather Map
Tropical Storm Tracking
New forecast layout! Learn more

10-Day Weather Forecast

Advertisements
Track Severe Weather on mobile